Bayview, Texas
Current Conditions -  °F | °C
As of 7:53 AM on Saturday 20 Dec 2014 (Local Time) from KPIL Reporting Station
Haze Haze  
Wind Chill: 59°   Ceiling: 900
Heat Index: 59°   Visibility: 6mi
Dew Point: 56°   Wind: 14mph
Humidity: 90%   Direction: 350°N
Pressure: 30.14"   Gusts: NA
Location:  26.1063°N, 97.4763°W
Report Text: KPIL 201353Z AUTO 35012KT 6SM BR BKN009 OVC026 15/13 A3014 RMK AO2 CIG 007V015 SLP205 T01500133
Loading
Personal Weather Stations






























Interactive Weather Map New forecast layout! Learn more

10-Day Weather Forecast

Advertisements
Track Severe Weather on mobile